sensor_id;sensor_type;location;lat;lon;timestamp;P1;durP1;ratioP1;P2;durP2;ratioP2
51985;SDS011;38002;53.296;6.600;2023-05-07T00:03:10;20.13;;;13.85;;
51985;SDS011;38002;53.296;6.600;2023-05-07T00:08:11;20.90;;;14.53;;
51985;SDS011;38002;53.296;6.600;2023-05-07T00:13:12;21.73;;;15.68;;
51985;SDS011;38002;53.296;6.600;2023-05-07T00:18:12;22.55;;;14.38;;
51985;SDS011;38002;53.296;6.600;2023-05-07T00:23:13;26.85;;;15.48;;
51985;SDS011;38002;53.296;6.600;2023-05-07T00:28:13;25.20;;;15.15;;
51985;SDS011;38002;53.296;6.600;2023-05-07T00:33:14;26.10;;;13.45;;
51985;SDS011;38002;53.296;6.600;2023-05-07T00:38:14;18.25;;;13.32;;
51985;SDS011;38002;53.296;6.600;2023-05-07T00:43:15;25.52;;;17.00;;
51985;SDS011;38002;53.296;6.600;2023-05-07T00:48:16;30.52;;;14.30;;
51985;SDS011;38002;53.296;6.600;2023-05-07T00:53:16;27.23;;;17.10;;
51985;SDS011;38002;53.296;6.600;2023-05-07T00:58:17;20.98;;;14.70;;
51985;SDS011;38002;53.296;6.600;2023-05-07T01:03:17;23.83;;;16.67;;
51985;SDS011;38002;53.296;6.600;2023-05-07T01:08:18;30.40;;;17.33;;
51985;SDS011;38002;53.296;6.600;2023-05-07T01:13:19;28.00;;;19.08;;
51985;SDS011;38002;53.296;6.600;2023-05-07T01:18:20;33.78;;;19.98;;
51985;SDS011;38002;53.296;6.600;2023-05-07T01:23:21;25.17;;;14.97;;
51985;SDS011;38002;53.296;6.600;2023-05-07T01:28:22;32.60;;;18.27;;
51985;SDS011;38002;53.296;6.600;2023-05-07T01:33:23;32.63;;;22.17;;
51985;SDS011;38002;53.296;6.600;2023-05-07T01:38:24;38.15;;;23.88;;
51985;SDS011;38002;53.296;6.600;2023-05-07T01:43:26;38.45;;;22.52;;
51985;SDS011;38002;53.296;6.600;2023-05-07T01:48:26;36.78;;;24.95;;
51985;SDS011;38002;53.296;6.600;2023-05-07T01:53:28;39.78;;;23.70;;
51985;SDS011;38002;53.296;6.600;2023-05-07T01:58:28;39.57;;;23.30;;
51985;SDS011;38002;53.296;6.600;2023-05-07T02:03:29;43.15;;;27.38;;
51985;SDS011;38002;53.296;6.600;2023-05-07T02:08:29;41.88;;;25.60;;
51985;SDS011;38002;53.296;6.600;2023-05-07T02:13:31;41.13;;;26.67;;
51985;SDS011;38002;53.296;6.600;2023-05-07T02:18:33;42.33;;;26.58;;
51985;SDS011;38002;53.296;6.600;2023-05-07T02:23:34;48.90;;;25.20;;
51985;SDS011;38002;53.296;6.600;2023-05-07T02:28:34;35.25;;;22.92;;
51985;SDS011;38002;53.296;6.600;2023-05-07T02:33:35;40.45;;;23.17;;
51985;SDS011;38002;53.296;6.600;2023-05-07T02:38:36;48.65;;;24.77;;
51985;SDS011;38002;53.296;6.600;2023-05-07T02:43:37;53.60;;;28.90;;
51985;SDS011;38002;53.296;6.600;2023-05-07T02:48:37;45.05;;;25.92;;
51985;SDS011;38002;53.296;6.600;2023-05-07T02:53:38;42.13;;;25.42;;
51985;SDS011;38002;53.296;6.600;2023-05-07T02:58:38;46.55;;;27.27;;
51985;SDS011;38002;53.296;6.600;2023-05-07T03:03:39;48.85;;;27.90;;
51985;SDS011;38002;53.296;6.600;2023-05-07T03:08:40;46.10;;;27.58;;
51985;SDS011;38002;53.296;6.600;2023-05-07T03:13:40;43.25;;;25.17;;
51985;SDS011;38002;53.296;6.600;2023-05-07T03:18:41;46.83;;;27.08;;
51985;SDS011;38002;53.296;6.600;2023-05-07T03:23:41;43.08;;;25.42;;
51985;SDS011;38002;53.296;6.600;2023-05-07T03:28:42;52.58;;;27.30;;
51985;SDS011;38002;53.296;6.600;2023-05-07T03:33:50;56.92;;;28.95;;
51985;SDS011;38002;53.296;6.600;2023-05-07T03:38:54;50.78;;;29.17;;
51985;SDS011;38002;53.296;6.600;2023-05-07T03:43:55;53.42;;;30.05;;
51985;SDS011;38002;53.296;6.600;2023-05-07T03:48:55;48.92;;;28.95;;
51985;SDS011;38002;53.296;6.600;2023-05-07T03:53:56;46.85;;;27.88;;
51985;SDS011;38002;53.296;6.600;2023-05-07T03:58:57;55.70;;;31.37;;
51985;SDS011;38002;53.296;6.600;2023-05-07T04:03:57;60.17;;;32.85;;
51985;SDS011;38002;53.296;6.600;2023-05-07T04:08:58;48.05;;;27.38;;
51985;SDS011;38002;53.296;6.600;2023-05-07T04:13:58;42.65;;;26.92;;
51985;SDS011;38002;53.296;6.600;2023-05-07T04:18:59;34.83;;;22.58;;
51985;SDS011;38002;53.296;6.600;2023-05-07T04:23:59;34.47;;;19.55;;
51985;SDS011;38002;53.296;6.600;2023-05-07T04:29:00;43.88;;;25.70;;
51985;SDS011;38002;53.296;6.600;2023-05-07T04:34:01;43.28;;;25.80;;
51985;SDS011;38002;53.296;6.600;2023-05-07T04:39:02;43.70;;;23.38;;
51985;SDS011;38002;53.296;6.600;2023-05-07T04:44:03;38.37;;;22.63;;
51985;SDS011;38002;53.296;6.600;2023-05-07T04:49:04;40.65;;;23.00;;
51985;SDS011;38002;53.296;6.600;2023-05-07T04:54:06;51.85;;;27.08;;
51985;SDS011;38002;53.296;6.600;2023-05-07T04:59:06;40.10;;;24.00;;
51985;SDS011;38002;53.296;6.600;2023-05-07T05:04:07;51.72;;;31.67;;
51985;SDS011;38002;53.296;6.600;2023-05-07T05:09:07;46.97;;;28.33;;
51985;SDS011;38002;53.296;6.600;2023-05-07T05:14:07;52.60;;;30.83;;
51985;SDS011;38002;53.296;6.600;2023-05-07T05:19:09;60.00;;;32.73;;
51985;SDS011;38002;53.296;6.600;2023-05-07T05:24:09;49.92;;;29.65;;
51985;SDS011;38002;53.296;6.600;2023-05-07T05:29:10;59.38;;;33.03;;
51985;SDS011;38002;53.296;6.600;2023-05-07T05:34:10;50.28;;;29.98;;
51985;SDS011;38002;53.296;6.600;2023-05-07T05:39:11;50.17;;;30.25;;
51985;SDS011;38002;53.296;6.600;2023-05-07T05:44:12;48.80;;;29.77;;
51985;SDS011;38002;53.296;6.600;2023-05-07T05:49:12;56.58;;;32.80;;
51985;SDS011;38002;53.296;6.600;2023-05-07T05:54:13;62.58;;;29.45;;
51985;SDS011;38002;53.296;6.600;2023-05-07T05:59:13;58.78;;;33.35;;
51985;SDS011;38002;53.296;6.600;2023-05-07T06:04:13;49.13;;;28.85;;
51985;SDS011;38002;53.296;6.600;2023-05-07T06:09:14;46.75;;;28.77;;
51985;SDS011;38002;53.296;6.600;2023-05-07T06:14:15;45.47;;;27.70;;
51985;SDS011;38002;53.296;6.600;2023-05-07T06:19:15;46.78;;;27.42;;
51985;SDS011;38002;53.296;6.600;2023-05-07T06:24:18;47.40;;;28.10;;
51985;SDS011;38002;53.296;6.600;2023-05-07T06:29:18;40.10;;;23.90;;
51985;SDS011;38002;53.296;6.600;2023-05-07T06:34:19;37.08;;;24.25;;
51985;SDS011;38002;53.296;6.600;2023-05-07T06:39:19;40.45;;;25.63;;
51985;SDS011;38002;53.296;6.600;2023-05-07T06:44:20;34.65;;;23.02;;
51985;SDS011;38002;53.296;6.600;2023-05-07T06:49:20;40.85;;;25.75;;
51985;SDS011;38002;53.296;6.600;2023-05-07T06:54:21;37.30;;;25.10;;
51985;SDS011;38002;53.296;6.600;2023-05-07T06:59:23;40.50;;;24.37;;
51985;SDS011;38002;53.296;6.600;2023-05-07T07:04:23;42.03;;;25.10;;
51985;SDS011;38002;53.296;6.600;2023-05-07T07:09:25;48.50;;;29.92;;
51985;SDS011;38002;53.296;6.600;2023-05-07T07:14:25;44.05;;;28.42;;
51985;SDS011;38002;53.296;6.600;2023-05-07T07:19:26;46.42;;;29.70;;
51985;SDS011;38002;53.296;6.600;2023-05-07T07:24:26;46.22;;;29.58;;
51985;SDS011;38002;53.296;6.600;2023-05-07T07:29:27;48.35;;;31.23;;
51985;SDS011;38002;53.296;6.600;2023-05-07T07:34:27;47.60;;;30.23;;
51985;SDS011;38002;53.296;6.600;2023-05-07T07:39:28;45.83;;;29.38;;
51985;SDS011;38002;53.296;6.600;2023-05-07T07:44:28;51.70;;;31.65;;
51985;SDS011;38002;53.296;6.600;2023-05-07T07:49:29;39.72;;;26.33;;
51985;SDS011;38002;53.296;6.600;2023-05-07T07:54:29;39.47;;;25.63;;
51985;SDS011;38002;53.296;6.600;2023-05-07T07:59:30;39.35;;;26.00;;
51985;SDS011;38002;53.296;6.600;2023-05-07T08:04:30;41.15;;;23.33;;
51985;SDS011;38002;53.296;6.600;2023-05-07T08:09:33;32.63;;;23.60;;
51985;SDS011;38002;53.296;6.600;2023-05-07T08:14:34;33.92;;;22.23;;
51985;SDS011;38002;53.296;6.600;2023-05-07T08:19:36;37.58;;;20.35;;
51985;SDS011;38002;53.296;6.600;2023-05-07T08:24:36;32.33;;;19.65;;
51985;SDS011;38002;53.296;6.600;2023-05-07T08:29:37;32.55;;;22.33;;
51985;SDS011;38002;53.296;6.600;2023-05-07T08:34:37;33.72;;;21.73;;
51985;SDS011;38002;53.296;6.600;2023-05-07T08:39:38;35.10;;;21.95;;
51985;SDS011;38002;53.296;6.600;2023-05-07T08:44:38;36.05;;;23.77;;
51985;SDS011;38002;53.296;6.600;2023-05-07T08:49:40;36.30;;;22.87;;
51985;SDS011;38002;53.296;6.600;2023-05-07T08:54:41;37.78;;;23.10;;
51985;SDS011;38002;53.296;6.600;2023-05-07T08:59:42;33.00;;;21.25;;
51985;SDS011;38002;53.296;6.600;2023-05-07T09:04:42;28.08;;;19.10;;
51985;SDS011;38002;53.296;6.600;2023-05-07T09:09:43;31.92;;;19.63;;
51985;SDS011;38002;53.296;6.600;2023-05-07T09:14:45;26.10;;;17.27;;
51985;SDS011;38002;53.296;6.600;2023-05-07T09:19:46;30.13;;;20.48;;
51985;SDS011;38002;53.296;6.600;2023-05-07T09:24:47;29.63;;;18.90;;
51985;SDS011;38002;53.296;6.600;2023-05-07T09:34:50;25.35;;;17.60;;
51985;SDS011;38002;53.296;6.600;2023-05-07T09:39:50;26.50;;;17.55;;
51985;SDS011;38002;53.296;6.600;2023-05-07T09:44:51;22.98;;;17.00;;
51985;SDS011;38002;53.296;6.600;2023-05-07T09:49:54;24.17;;;15.35;;
51985;SDS011;38002;53.296;6.600;2023-05-07T09:54:57;24.65;;;16.20;;
51985;SDS011;38002;53.296;6.600;2023-05-07T09:59:59;23.67;;;17.17;;
51985;SDS011;38002;53.296;6.600;2023-05-07T10:05:04;22.05;;;15.52;;
51985;SDS011;38002;53.296;6.600;2023-05-07T10:10:06;22.42;;;16.85;;
51985;SDS011;38002;53.296;6.600;2023-05-07T10:15:08;19.15;;;14.38;;
51985;SDS011;38002;53.296;6.600;2023-05-07T10:20:10;23.00;;;15.23;;
51985;SDS011;38002;53.296;6.600;2023-05-07T10:25:25;17.15;;;12.73;;
51985;SDS011;38002;53.296;6.600;2023-05-07T10:35:57;20.33;;;14.77;;
51985;SDS011;38002;53.296;6.600;2023-05-07T10:41:00;21.80;;;14.82;;
51985;SDS011;38002;53.296;6.600;2023-05-07T10:51:19;19.85;;;14.82;;
51985;SDS011;38002;53.296;6.600;2023-05-07T10:56:24;17.23;;;13.30;;
51985;SDS011;38002;53.296;6.600;2023-05-07T11:12:09;16.90;;;13.15;;
51985;SDS011;38002;53.296;6.600;2023-05-07T11:17:09;16.37;;;13.57;;
51985;SDS011;38002;53.296;6.600;2023-05-07T11:22:31;18.57;;;12.80;;
51985;SDS011;38002;53.296;6.600;2023-05-07T11:27:31;15.32;;;12.05;;
51985;SDS011;38002;53.296;6.600;2023-05-07T11:37:33;12.40;;;10.40;;
51985;SDS011;38002;53.296;6.600;2023-05-07T11:42:34;16.27;;;11.50;;
51985;SDS011;38002;53.296;6.600;2023-05-07T11:47:37;13.60;;;10.50;;
51985;SDS011;38002;53.296;6.600;2023-05-07T11:52:37;17.53;;;10.70;;
51985;SDS011;38002;53.296;6.600;2023-05-07T11:57:39;14.52;;;12.25;;
51985;SDS011;38002;53.296;6.600;2023-05-07T12:02:39;13.70;;;12.27;;
51985;SDS011;38002;53.296;6.600;2023-05-07T12:07:41;12.98;;;11.32;;
51985;SDS011;38002;53.296;6.600;2023-05-07T12:12:45;13.23;;;11.93;;
51985;SDS011;38002;53.296;6.600;2023-05-07T12:17:46;13.48;;;11.20;;
51985;SDS011;38002;53.296;6.600;2023-05-07T12:22:47;12.53;;;10.50;;
51985;SDS011;38002;53.296;6.600;2023-05-07T12:27:52;12.18;;;9.82;;
51985;SDS011;38002;53.296;6.600;2023-05-07T12:32:53;15.77;;;13.65;;
51985;SDS011;38002;53.296;6.600;2023-05-07T12:37:55;13.50;;;11.57;;
51985;SDS011;38002;53.296;6.600;2023-05-07T12:48:01;12.52;;;11.30;;
51985;SDS011;38002;53.296;6.600;2023-05-07T12:53:03;13.48;;;11.95;;
51985;SDS011;38002;53.296;6.600;2023-05-07T12:58:08;13.75;;;12.07;;
51985;SDS011;38002;53.296;6.600;2023-05-07T13:03:08;12.10;;;10.90;;
51985;SDS011;38002;53.296;6.600;2023-05-07T13:08:09;13.67;;;11.00;;
51985;SDS011;38002;53.296;6.600;2023-05-07T13:13:10;13.60;;;10.73;;
51985;SDS011;38002;53.296;6.600;2023-05-07T13:18:10;12.57;;;11.17;;
51985;SDS011;38002;53.296;6.600;2023-05-07T13:23:11;12.50;;;11.20;;
51985;SDS011;38002;53.296;6.600;2023-05-07T13:28:11;12.63;;;10.20;;
51985;SDS011;38002;53.296;6.600;2023-05-07T13:33:12;12.43;;;11.00;;
51985;SDS011;38002;53.296;6.600;2023-05-07T13:38:13;12.63;;;11.33;;
51985;SDS011;38002;53.296;6.600;2023-05-07T13:43:15;11.30;;;10.27;;
51985;SDS011;38002;53.296;6.600;2023-05-07T13:48:17;11.88;;;10.30;;
51985;SDS011;38002;53.296;6.600;2023-05-07T13:53:18;11.80;;;10.63;;
51985;SDS011;38002;53.296;6.600;2023-05-07T13:58:18;12.47;;;9.70;;
51985;SDS011;38002;53.296;6.600;2023-05-07T14:03:18;8.63;;;7.73;;
51985;SDS011;38002;53.296;6.600;2023-05-07T14:08:19;9.83;;;8.80;;
51985;SDS011;38002;53.296;6.600;2023-05-07T14:13:20;9.98;;;8.52;;
51985;SDS011;38002;53.296;6.600;2023-05-07T14:18:21;12.87;;;10.27;;
51985;SDS011;38002;53.296;6.600;2023-05-07T14:23:21;8.60;;;7.80;;
51985;SDS011;38002;53.296;6.600;2023-05-07T14:28:26;10.52;;;9.45;;
51985;SDS011;38002;53.296;6.600;2023-05-07T14:33:26;10.40;;;7.90;;
51985;SDS011;38002;53.296;6.600;2023-05-07T14:38:27;9.60;;;8.63;;
51985;SDS011;38002;53.296;6.600;2023-05-07T14:43:27;8.83;;;7.97;;
51985;SDS011;38002;53.296;6.600;2023-05-07T14:48:28;8.50;;;7.77;;
51985;SDS011;38002;53.296;6.600;2023-05-07T14:53:28;10.40;;;9.43;;
51985;SDS011;38002;53.296;6.600;2023-05-07T14:58:29;8.20;;;7.40;;
51985;SDS011;38002;53.296;6.600;2023-05-07T15:03:29;8.30;;;7.53;;
51985;SDS011;38002;53.296;6.600;2023-05-07T15:08:30;10.23;;;9.20;;
51985;SDS011;38002;53.296;6.600;2023-05-07T15:13:30;9.60;;;8.37;;
51985;SDS011;38002;53.296;6.600;2023-05-07T15:18:31;9.67;;;8.43;;
51985;SDS011;38002;53.296;6.600;2023-05-07T15:23:31;9.03;;;8.23;;
51985;SDS011;38002;53.296;6.600;2023-05-07T15:33:33;9.00;;;8.20;;
51985;SDS011;38002;53.296;6.600;2023-05-07T15:38:34;9.60;;;7.87;;
51985;SDS011;38002;53.296;6.600;2023-05-07T15:43:44;9.10;;;8.30;;
51985;SDS011;38002;53.296;6.600;2023-05-07T15:48:47;10.07;;;9.07;;
51985;SDS011;38002;53.296;6.600;2023-05-07T15:53:47;10.13;;;9.23;;
51985;SDS011;38002;53.296;6.600;2023-05-07T16:03:49;10.03;;;9.17;;
51985;SDS011;38002;53.296;6.600;2023-05-07T16:08:50;10.57;;;9.57;;
51985;SDS011;38002;53.296;6.600;2023-05-07T16:13:50;12.20;;;11.10;;
51985;SDS011;38002;53.296;6.600;2023-05-07T16:18:51;11.83;;;10.63;;
51985;SDS011;38002;53.296;6.600;2023-05-07T16:23:51;9.97;;;8.57;;
51985;SDS011;38002;53.296;6.600;2023-05-07T16:28:52;12.53;;;11.27;;
51985;SDS011;38002;53.296;6.600;2023-05-07T16:33:52;9.47;;;8.63;;
51985;SDS011;38002;53.296;6.600;2023-05-07T16:38:53;10.37;;;9.40;;
51985;SDS011;38002;53.296;6.600;2023-05-07T16:43:54;12.90;;;10.98;;
51985;SDS011;38002;53.296;6.600;2023-05-07T16:48:56;9.93;;;9.02;;
51985;SDS011;38002;53.296;6.600;2023-05-07T16:53:57;14.07;;;11.30;;
51985;SDS011;38002;53.296;6.600;2023-05-07T16:58:57;11.77;;;10.67;;
51985;SDS011;38002;53.296;6.600;2023-05-07T17:03:57;10.43;;;9.43;;
51985;SDS011;38002;53.296;6.600;2023-05-07T17:08:58;11.10;;;10.10;;
51985;SDS011;38002;53.296;6.600;2023-05-07T17:13:59;10.73;;;9.20;;
51985;SDS011;38002;53.296;6.600;2023-05-07T17:18:59;11.07;;;8.93;;
51985;SDS011;38002;53.296;6.600;2023-05-07T17:24:00;11.57;;;9.97;;
51985;SDS011;38002;53.296;6.600;2023-05-07T17:29:01;10.13;;;9.13;;
51985;SDS011;38002;53.296;6.600;2023-05-07T17:39:02;8.93;;;8.02;;
51985;SDS011;38002;53.296;6.600;2023-05-07T17:44:03;11.63;;;10.52;;
51985;SDS011;38002;53.296;6.600;2023-05-07T17:49:03;10.93;;;9.83;;
51985;SDS011;38002;53.296;6.600;2023-05-07T17:54:04;9.77;;;8.87;;
51985;SDS011;38002;53.296;6.600;2023-05-07T17:59:04;9.37;;;8.37;;
51985;SDS011;38002;53.296;6.600;2023-05-07T18:04:05;9.40;;;8.50;;
51985;SDS011;38002;53.296;6.600;2023-05-07T18:09:05;12.47;;;9.13;;
51985;SDS011;38002;53.296;6.600;2023-05-07T18:14:06;10.53;;;9.53;;
51985;SDS011;38002;53.296;6.600;2023-05-07T18:19:07;12.40;;;11.10;;
51985;SDS011;38002;53.296;6.600;2023-05-07T18:24:08;12.27;;;11.02;;
51985;SDS011;38002;53.296;6.600;2023-05-07T18:29:08;10.50;;;8.83;;
51985;SDS011;38002;53.296;6.600;2023-05-07T18:34:09;13.57;;;9.93;;
51985;SDS011;38002;53.296;6.600;2023-05-07T18:39:09;12.00;;;10.80;;
51985;SDS011;38002;53.296;6.600;2023-05-07T18:44:10;10.13;;;9.10;;
51985;SDS011;38002;53.296;6.600;2023-05-07T18:49:10;10.13;;;9.23;;
51985;SDS011;38002;53.296;6.600;2023-05-07T18:54:11;11.20;;;9.30;;
51985;SDS011;38002;53.296;6.600;2023-05-07T18:59:11;12.57;;;11.40;;
51985;SDS011;38002;53.296;6.600;2023-05-07T19:04:11;11.63;;;10.43;;
51985;SDS011;38002;53.296;6.600;2023-05-07T19:09:12;11.73;;;9.90;;
51985;SDS011;38002;53.296;6.600;2023-05-07T19:14:13;10.45;;;9.45;;
51985;SDS011;38002;53.296;6.600;2023-05-07T19:19:14;10.70;;;9.73;;
51985;SDS011;38002;53.296;6.600;2023-05-07T19:24:15;18.47;;;11.17;;
51985;SDS011;38002;53.296;6.600;2023-05-07T19:29:15;11.43;;;10.20;;
51985;SDS011;38002;53.296;6.600;2023-05-07T19:34:16;15.00;;;11.77;;
51985;SDS011;38002;53.296;6.600;2023-05-07T19:39:16;13.20;;;11.87;;
51985;SDS011;38002;53.296;6.600;2023-05-07T19:44:17;16.80;;;10.77;;
51985;SDS011;38002;53.296;6.600;2023-05-07T19:49:17;11.70;;;10.50;;
51985;SDS011;38002;53.296;6.600;2023-05-07T19:54:18;10.17;;;9.13;;
51985;SDS011;38002;53.296;6.600;2023-05-07T19:59:19;11.07;;;9.37;;
51985;SDS011;38002;53.296;6.600;2023-05-07T20:04:20;10.27;;;9.18;;
51985;SDS011;38002;53.296;6.600;2023-05-07T20:09:21;7.70;;;7.00;;
51985;SDS011;38002;53.296;6.600;2023-05-07T20:14:22;10.30;;;9.30;;
51985;SDS011;38002;53.296;6.600;2023-05-07T20:19:22;12.43;;;10.23;;
51985;SDS011;38002;53.296;6.600;2023-05-07T20:24:23;9.70;;;8.47;;
51985;SDS011;38002;53.296;6.600;2023-05-07T20:29:23;9.47;;;8.57;;
51985;SDS011;38002;53.296;6.600;2023-05-07T20:34:24;8.80;;;8.03;;
51985;SDS011;38002;53.296;6.600;2023-05-07T20:39:25;9.30;;;7.57;;
51985;SDS011;38002;53.296;6.600;2023-05-07T20:44:25;7.77;;;7.00;;
51985;SDS011;38002;53.296;6.600;2023-05-07T20:49:25;10.80;;;8.33;;
51985;SDS011;38002;53.296;6.600;2023-05-07T20:54:26;8.20;;;7.37;;
51985;SDS011;38002;53.296;6.600;2023-05-07T20:59:27;9.03;;;7.87;;
51985;SDS011;38002;53.296;6.600;2023-05-07T21:04:28;8.47;;;6.93;;
51985;SDS011;38002;53.296;6.600;2023-05-07T21:09:29;11.50;;;8.23;;
51985;SDS011;38002;53.296;6.600;2023-05-07T21:14:29;8.90;;;8.10;;
51985;SDS011;38002;53.296;6.600;2023-05-07T21:19:30;9.77;;;7.90;;
51985;SDS011;38002;53.296;6.600;2023-05-07T21:24:30;8.90;;;8.03;;
51985;SDS011;38002;53.296;6.600;2023-05-07T21:29:31;10.23;;;9.23;;
51985;SDS011;38002;53.296;6.600;2023-05-07T21:34:32;9.33;;;8.43;;
51985;SDS011;38002;53.296;6.600;2023-05-07T21:39:32;9.23;;;8.33;;
51985;SDS011;38002;53.296;6.600;2023-05-07T21:44:32;10.23;;;9.23;;
51985;SDS011;38002;53.296;6.600;2023-05-07T21:49:33;10.27;;;9.15;;
51985;SDS011;38002;53.296;6.600;2023-05-07T21:54:33;14.23;;;9.15;;
51985;SDS011;38002;53.296;6.600;2023-05-07T21:59:34;13.43;;;10.17;;
51985;SDS011;38002;53.296;6.600;2023-05-07T22:04:34;8.53;;;7.70;;
51985;SDS011;38002;53.296;6.600;2023-05-07T22:09:35;9.63;;;7.70;;
51985;SDS011;38002;53.296;6.600;2023-05-07T22:14:35;10.52;;;8.88;;
51985;SDS011;38002;53.296;6.600;2023-05-07T22:19:36;8.33;;;7.53;;
51985;SDS011;38002;53.296;6.600;2023-05-07T22:24:36;12.47;;;9.80;;
51985;SDS011;38002;53.296;6.600;2023-05-07T22:29:36;7.38;;;6.70;;
51985;SDS011;38002;53.296;6.600;2023-05-07T22:34:37;10.57;;;8.32;;
51985;SDS011;38002;53.296;6.600;2023-05-07T22:39:37;8.50;;;7.70;;
51985;SDS011;38002;53.296;6.600;2023-05-07T22:44:39;11.18;;;9.48;;
51985;SDS011;38002;53.296;6.600;2023-05-07T22:49:39;10.05;;;9.05;;
51985;SDS011;38002;53.296;6.600;2023-05-07T22:54:40;10.98;;;9.80;;
51985;SDS011;38002;53.296;6.600;2023-05-07T22:59:40;9.77;;;8.80;;
51985;SDS011;38002;53.296;6.600;2023-05-07T23:04:41;10.87;;;8.83;;
51985;SDS011;38002;53.296;6.600;2023-05-07T23:09:41;9.10;;;7.18;;
51985;SDS011;38002;53.296;6.600;2023-05-07T23:14:42;10.50;;;9.43;;
51985;SDS011;38002;53.296;6.600;2023-05-07T23:19:42;11.33;;;9.40;;
51985;SDS011;38002;53.296;6.600;2023-05-07T23:24:43;11.20;;;10.00;;
51985;SDS011;38002;53.296;6.600;2023-05-07T23:29:44;10.75;;;8.10;;
51985;SDS011;38002;53.296;6.600;2023-05-07T23:34:49;11.82;;;8.98;;
51985;SDS011;38002;53.296;6.600;2023-05-07T23:39:53;9.70;;;8.70;;
51985;SDS011;38002;53.296;6.600;2023-05-07T23:44:54;9.68;;;6.55;;
51985;SDS011;38002;53.296;6.600;2023-05-07T23:49:54;10.00;;;8.95;;
51985;SDS011;38002;53.296;6.600;2023-05-07T23:54:55;10.47;;;8.40;;
51985;SDS011;38002;53.296;6.600;2023-05-07T23:59:55;11.77;;;8.38;;
